Time;durP1;ratioP1;P1;durP2;ratioP2;P2;SDS_P1;SDS_P2;PMS_P1;PMS_P2;Temp;Humidity;BMP_temperature;BMP_pressure;BME280_temperature;BME280_humidity;BME280_pressure;Samples;Min_cycle;Max_cycle;Signal;HPM_P1;HPM_P2
2023/12/04 00:00:12;;;;;;;11.95;5.30;;;;;;;5.89;78.58;100121.44;3168550;28;20048;-64
2023/12/04 00:01:46;;;;;;;12.25;5.75;;;;;;;5.90;78.36;100128.31;3174453;27;20051;-64
2023/12/04 00:03:16;;;;;;;10.43;5.03;;;;;;;5.88;78.49;100127.47;3171098;28;20058;-64
2023/12/04 00:04:48;;;;;;;11.63;5.32;;;;;;;5.89;78.50;100124.03;3171361;28;20082;-65
2023/12/04 00:06:21;;;;;;;9.63;5.00;;;;;;;5.91;78.25;100127.41;3170890;28;20413;-64
2023/12/04 00:07:53;;;;;;;;;;;;;;;5.75;78.44;100129.47;3171636;28;20418;-64
2023/12/04 00:09:24;;;;;;;9.50;5.05;;;;;;;5.80;78.61;100134.56;3170738;28;20003;-63
2023/12/04 00:10:56;;;;;;;6.88;4.22;;;;;;;5.82;78.45;100130.19;3170549;28;20043;-64
2023/12/04 00:12:27;;;;;;;10.30;5.70;;;;;;;5.85;78.42;100141.31;3171167;28;20415;-63
2023/12/04 00:13:59;;;;;;;9.95;5.07;;;;;;;5.84;78.07;100139.63;3171426;28;20054;-64
2023/12/04 00:15:30;;;;;;;9.40;4.85;;;;;;;5.85;78.21;100145.63;3174049;27;20047;-64
2023/12/04 00:17:01;;;;;;;9.82;5.05;;;;;;;5.86;78.11;100142.19;3171855;27;20063;-63
2023/12/04 00:18:32;;;;;;;8.82;5.10;;;;;;;5.86;78.30;100147.38;3170499;28;20051;-65
2023/12/04 00:20:04;;;;;;;11.23;5.70;;;;;;;5.73;78.07;100126.06;3170928;28;20070;-65
2023/12/04 00:21:38;;;;;;;11.20;5.35;;;;;;;5.86;77.72;100157.69;3170864;28;20101;-65
2023/12/04 00:23:09;;;;;;;12.15;6.30;;;;;;;5.84;77.54;100165.47;3169800;28;20463;-65
2023/12/04 00:24:41;;;;;;;12.00;5.28;;;;;;;5.76;77.67;100146.69;3170633;28;20052;-63
2023/12/04 00:26:12;;;;;;;12.25;5.38;;;;;;;5.83;77.23;100162.94;3170753;28;20059;-64
2023/12/04 00:27:44;;;;;;;9.50;5.32;;;;;;;5.82;77.19;100171.56;3170249;28;20233;-63
2023/12/04 00:29:15;;;;;;;11.82;5.50;;;;;;;5.80;76.79;100166.44;3168845;28;20133;-63
2023/12/04 00:30:48;;;;;;;9.32;5.28;;;;;;;5.80;76.82;100174.19;3169970;27;20543;-63
2023/12/04 00:32:18;;;;;;;11.18;5.85;;;;;;;5.78;76.48;100178.50;3169781;28;20116;-63
2023/12/04 00:33:50;;;;;;;10.40;5.38;;;;;;;5.81;75.66;100193.13;3170063;28;20128;-63
2023/12/04 00:35:22;;;;;;;9.52;4.85;;;;;;;5.77;75.36;100197.50;3170319;28;20063;-63
2023/12/04 00:36:54;;;;;;;10.57;5.38;;;;;;;5.76;74.95;100202.69;3170363;28;20448;-63
2023/12/04 00:38:26;;;;;;;10.20;5.07;;;;;;;5.71;74.56;100205.38;3170574;28;20434;-63
2023/12/04 00:39:56;;;;;;;11.27;5.20;;;;;;;5.68;74.27;100195.94;3170835;28;20056;-63
2023/12/04 00:41:28;;;;;;;11.95;5.82;;;;;;;5.67;74.48;100196.81;3170290;28;20047;-63
2023/12/04 00:42:59;;;;;;;11.77;5.18;;;;;;;5.67;74.29;100183.03;3170852;28;20454;-63
2023/12/04 00:44:31;;;;;;;8.80;4.82;;;;;;;5.69;74.40;100189.03;3172347;27;20048;-63
2023/12/04 00:46:02;;;;;;;8.80;4.90;;;;;;;5.68;74.59;100174.41;3167849;28;20047;-63
2023/12/04 00:47:33;;;;;;;11.00;5.60;;;;;;;5.66;74.33;100171.84;3170829;28;20436;-63
2023/12/04 00:49:04;;;;;;;11.65;5.25;;;;;;;5.53;74.26;100147.16;3170363;28;20058;-63
2023/12/04 00:50:36;;;;;;;9.88;5.05;;;;;;;5.66;74.29;100173.59;3170479;28;20044;-63
2023/12/04 00:52:08;;;;;;;12.15;5.60;;;;;;;5.66;73.94;100182.19;3170409;28;20056;-63
2023/12/04 00:53:40;;;;;;;9.25;4.88;;;;;;;5.65;73.85;100184.81;3170433;28;20043;-63
2023/12/04 00:55:10;;;;;;;9.43;4.20;;;;;;;5.63;73.72;100176.22;3170409;28;20062;-63
2023/12/04 00:56:43;;;;;;;10.63;5.35;;;;;;;5.61;73.75;100183.16;3170219;28;20066;-63
2023/12/04 00:58:13;;;;;;;10.38;5.32;;;;;;;5.66;73.46;100191.69;3170291;28;20046;-64
2023/12/04 00:59:45;;;;;;;9.35;4.40;;;;;;;5.64;73.25;100186.53;3167467;27;20145;-63
2023/12/04 01:01:16;;;;;;;10.35;5.30;;;;;;;5.64;72.80;100189.09;3169665;28;20051;-63
2023/12/04 01:02:48;;;;;;;9.73;4.35;;;;;;;5.64;72.85;100199.44;3169980;28;20074;-63
2023/12/04 01:04:18;;;;;;;11.05;4.38;;;;;;;5.63;72.85;100195.16;3170874;28;20062;-63
2023/12/04 01:05:50;;;;;;;7.78;4.38;;;;;;;5.62;72.62;100200.34;3170527;28;20464;-63
2023/12/04 01:07:22;;;;;;;9.93;4.90;;;;;;;5.61;72.56;100201.25;3170055;28;20397;-63
2023/12/04 01:08:55;;;;;;;7.70;4.32;;;;;;;5.60;72.56;100209.88;3169883;28;20046;-64
2023/12/04 01:10:26;;;;;;;8.93;4.65;;;;;;;5.57;72.30;100200.44;3170311;28;20063;-64
2023/12/04 01:11:58;;;;;;;9.25;4.47;;;;;;;5.56;72.47;100203.03;3170240;28;20142;-64
2023/12/04 01:13:28;;;;;;;8.48;4.68;;;;;;;5.59;72.49;100215.91;3170508;28;20048;-64
2023/12/04 01:15:02;;;;;;;6.85;4.05;;;;;;;5.56;72.37;100214.25;3166089;28;20039;-64
2023/12/04 01:16:32;;;;;;;;;;;;;;;5.44;72.62;100217.91;3170630;28;20070;-64
2023/12/04 01:18:04;;;;;;;9.73;4.57;;;;;;;5.45;72.41;100213.59;3170184;28;19931;-64
2023/12/04 01:19:35;;;;;;;7.38;4.13;;;;;;;5.51;72.08;100218.63;3169933;28;20044;-64
2023/12/04 01:21:08;;;;;;;9.82;4.45;;;;;;;5.50;72.11;100206.59;3169681;28;20663;-64
2023/12/04 01:22:40;;;;;;;;;;;;;;;5.39;72.42;100208.53;3170908;28;20043;-64
2023/12/04 01:24:12;;;;;;;10.20;4.80;;;;;;;5.42;72.58;100213.66;3170510;28;19923;-62
2023/12/04 01:25:44;;;;;;;7.38;3.72;;;;;;;5.48;71.81;100213.53;3169744;28;20058;-61
2023/12/04 01:27:15;;;;;;;8.43;4.60;;;;;;;4.69;71.83;100087.50;3170231;28;20698;-61
2023/12/04 01:28:47;;;;;;;10.07;4.28;;;;;;;5.45;71.91;100218.75;3173794;27;20043;-61
2023/12/04 01:30:17;;;;;;;10.35;4.57;;;;;;;5.45;71.86;100216.16;3167259;28;20362;-61
2023/12/04 01:31:49;;;;;;;8.40;4.40;;;;;;;5.44;71.84;100214.44;3169859;28;20066;-61
2023/12/04 01:33:20;;;;;;;8.05;4.60;;;;;;;5.44;71.80;100222.19;3157840;28;20453;-62
2023/12/04 01:34:52;;;;;;;7.15;4.00;;;;;;;5.45;71.83;100221.34;3168799;28;20052;-61
2023/12/04 01:36:22;;;;;;;9.90;4.43;;;;;;;5.44;71.49;100224.78;3170167;28;20055;-61
2023/12/04 01:37:55;;;;;;;6.75;4.18;;;;;;;5.42;71.38;100223.97;3169386;28;20544;-61
2023/12/04 01:39:26;;;;;;;8.82;4.10;;;;;;;5.40;71.63;100220.56;3169922;28;20389;-61
2023/12/04 01:40:58;;;;;;;7.15;3.78;;;;;;;5.40;71.11;100223.97;3169476;28;20054;-61
2023/12/04 01:42:28;;;;;;;9.55;4.53;;;;;;;5.37;70.89;100221.47;3169846;28;20441;-61
2023/12/04 01:44:00;;;;;;;9.07;4.40;;;;;;;5.36;70.90;100224.09;3175131;27;20050;-61
2023/12/04 01:45:32;;;;;;;7.85;4.20;;;;;;;5.35;70.94;100217.19;3169575;28;20047;-61
2023/12/04 01:47:03;;;;;;;8.05;4.32;;;;;;;5.35;70.82;100224.94;3169861;28;20051;-61
2023/12/04 01:48:35;;;;;;;6.82;3.85;;;;;;;5.36;70.58;100224.94;3169533;28;20055;-61
2023/12/04 01:50:07;;;;;;;6.35;3.88;;;;;;;5.35;70.66;100223.19;3169989;28;20068;-62
2023/12/04 01:51:39;;;;;;;5.10;3.13;;;;;;;5.34;70.19;100228.41;3169806;28;20046;-61
2023/12/04 01:53:12;;;;;;;6.45;3.70;;;;;;;5.33;70.08;100221.56;3169655;28;20426;-62
2023/12/04 01:54:45;;;;;;;;;;;;;;;5.22;69.63;100232.03;3170006;28;20051;-61
2023/12/04 01:56:17;;;;;;;6.70;3.85;;;;;;;5.27;68.93;100230.25;3169853;28;19927;-62
2023/12/04 01:57:49;;;;;;;6.88;3.42;;;;;;;5.23;68.72;100232.03;3173264;27;20043;-62
2023/12/04 01:59:20;;;;;;;6.32;3.65;;;;;;;5.24;68.87;100230.31;3167690;28;20040;-61
2023/12/04 02:00:52;;;;;;;10.80;3.10;;;;;;;5.09;68.52;100215.03;3168916;28;20047;-62
2023/12/04 02:02:23;;;;;;;7.68;3.10;;;;;;;5.24;68.67;100231.16;3169286;28;20047;-62
2023/12/04 02:03:56;;;;;;;7.65;3.83;;;;;;;5.23;68.38;100234.63;3169721;28;20062;-62
2023/12/04 02:05:27;;;;;;;6.70;3.53;;;;;;;5.20;68.56;100232.06;3169428;28;20057;-62
2023/12/04 02:06:59;;;;;;;6.15;3.47;;;;;;;5.24;68.29;100227.72;3169394;28;20043;-61
2023/12/04 02:08:31;;;;;;;6.00;3.03;;;;;;;5.25;68.08;100229.41;3169633;28;20044;-62
2023/12/04 02:10:03;;;;;;;7.00;3.30;;;;;;;4.74;67.58;100152.81;3169465;28;20126;-61
2023/12/04 02:11:34;;;;;;;5.85;3.40;;;;;;;5.22;67.42;100238.06;3169364;28;20043;-61
2023/12/04 02:13:06;;;;;;;8.55;3.45;;;;;;;5.20;67.24;100249.28;3173760;27;20047;-64
2023/12/04 02:14:37;;;;;;;7.13;4.03;;;;;;;5.19;67.32;100242.44;3169184;28;20082;-63
2023/12/04 02:16:11;;;;;;;7.35;3.58;;;;;;;5.20;67.15;100233.78;3170077;28;20047;-63
2023/12/04 02:17:44;;;;;;;7.47;3.63;;;;;;;5.17;66.97;100234.69;3169709;28;20043;-63
2023/12/04 02:19:16;;;;;;;5.70;2.90;;;;;;;5.17;66.71;100246.75;3169167;28;20565;-64
2023/12/04 02:20:46;;;;;;;7.35;2.65;;;;;;;5.16;66.74;100239.91;3169245;28;20074;-64
2023/12/04 02:22:18;;;;;;;6.82;3.30;;;;;;;5.16;66.28;100247.63;3169069;28;20046;-63
2023/12/04 02:23:51;;;;;;;4.82;2.90;;;;;;;5.16;65.98;100245.91;3169367;28;20048;-63
2023/12/04 02:25:23;;;;;;;5.75;3.05;;;;;;;5.12;66.02;100252.00;3168328;28;20436;-63
2023/12/04 02:26:58;;;;;;;5.10;2.60;;;;;;;5.12;65.89;100264.91;3172471;27;20047;-63
2023/12/04 02:28:34;;;;;;;5.88;3.10;;;;;;;5.10;65.61;100268.38;3156951;28;20048;-63
2023/12/04 02:30:08;;;;;;;5.22;2.88;;;;;;;5.08;65.71;100270.13;3163070;28;20040;-63
2023/12/04 02:31:41;;;;;;;5.38;2.63;;;;;;;5.06;65.51;100274.47;3169121;28;20131;-63
2023/12/04 02:33:15;;;;;;;8.27;2.90;;;;;;;5.11;64.88;100273.50;3169229;28;20054;-64
2023/12/04 02:34:48;;;;;;;;;;;;;;;4.94;64.85;100278.06;3169557;28;20056;-63
2023/12/04 02:36:21;;;;;;;6.07;2.72;;;;;;;4.94;65.17;100272.91;3169374;28;20415;-63
2023/12/04 02:37:53;;;;;;;6.50;2.83;;;;;;;4.97;65.19;100280.63;3168808;28;20047;-63
2023/12/04 02:39:26;;;;;;;8.15;2.55;;;;;;;4.88;64.79;100265.25;3169313;28;20048;-63
2023/12/04 02:40:58;;;;;;;5.53;2.87;;;;;;;4.97;64.81;100283.22;3168468;28;20104;-63
2023/12/04 02:42:29;;;;;;;4.18;2.15;;;;;;;5.02;64.80;100286.56;3169250;28;20055;-63
2023/12/04 02:44:00;;;;;;;4.85;2.70;;;;;;;5.01;64.79;100298.63;3169557;28;20054;-63
2023/12/04 02:45:31;;;;;;;6.82;2.88;;;;;;;5.02;64.35;100289.13;3168930;28;20047;-63
2023/12/04 02:47:03;;;;;;;5.60;2.92;;;;;;;5.01;64.53;100290.03;3169216;28;20103;-63
2023/12/04 02:48:34;;;;;;;5.75;3.17;;;;;;;5.00;64.42;100284.03;3169087;28;20080;-63
2023/12/04 02:50:06;;;;;;;5.55;2.97;;;;;;;4.98;64.41;100272.00;3169149;28;20043;-63
2023/12/04 02:51:40;;;;;;;5.88;2.55;;;;;;;5.01;64.49;100283.13;3169387;28;20044;-63
2023/12/04 02:53:12;;;;;;;7.13;3.05;;;;;;;5.01;64.00;100275.38;3165178;28;20075;-63
2023/12/04 02:54:44;;;;;;;5.10;3.03;;;;;;;4.92;63.71;100265.19;3163958;28;20051;-63
2023/12/04 02:56:16;;;;;;;4.82;2.63;;;;;;;4.99;63.89;100278.88;3163944;28;20506;-63
2023/12/04 02:57:47;;;;;;;5.78;3.05;;;;;;;4.99;63.70;100287.47;3164194;28;20077;-63
2023/12/04 02:59:18;;;;;;;7.35;2.95;;;;;;;4.97;63.89;100276.31;3162045;28;20047;-63
2023/12/04 03:00:49;;;;;;;5.20;3.00;;;;;;;5.00;63.73;100288.34;3163256;28;20518;-63
2023/12/04 03:02:21;;;;;;;6.20;3.42;;;;;;;4.99;63.59;100284.03;3163611;28;20058;-63
2023/12/04 03:03:52;;;;;;;6.32;3.00;;;;;;;4.96;63.14;100291.81;3163541;28;20140;-63
2023/12/04 03:05:24;;;;;;;5.38;3.22;;;;;;;4.94;63.12;100293.56;3163756;28;20509;-63
2023/12/04 03:06:55;;;;;;;5.97;2.90;;;;;;;4.95;62.92;100290.13;3163948;28;20392;-63
2023/12/04 03:08:26;;;;;;;4.75;2.70;;;;;;;4.93;62.78;100300.44;3164068;28;20047;-63
2023/12/04 03:09:59;;;;;;;7.03;3.40;;;;;;;4.92;62.55;100301.34;3163969;28;20074;-62
2023/12/04 03:11:31;;;;;;;6.72;3.25;;;;;;;4.94;62.26;100311.63;3164209;28;20059;-63
2023/12/04 03:13:03;;;;;;;6.90;3.28;;;;;;;4.89;61.92;100313.44;3164036;28;20503;-63
2023/12/04 03:14:33;;;;;;;5.43;2.92;;;;;;;4.85;61.69;100320.38;3163485;28;20048;-63
2023/12/04 03:16:06;;;;;;;7.35;3.90;;;;;;;4.87;61.30;100320.34;3164374;28;20250;-63
2023/12/04 03:17:38;;;;;;;5.43;3.13;;;;;;;4.83;61.48;100326.44;3164080;28;20120;-65
2023/12/04 03:19:08;;;;;;;4.68;2.95;;;;;;;4.83;61.53;100326.44;3163727;28;20058;-62
2023/12/04 03:20:40;;;;;;;5.88;3.58;;;;;;;4.82;61.53;100324.69;3163638;28;20528;-63
2023/12/04 03:22:12;;;;;;;5.72;3.10;;;;;;;4.80;61.75;100327.31;3163416;28;20058;-63
2023/12/04 03:23:43;;;;;;;5.30;2.97;;;;;;;4.80;61.63;100337.63;3163942;28;20055;-62
2023/12/04 03:25:16;;;;;;;5.95;3.10;;;;;;;4.79;61.59;100336.78;3166486;28;20066;-63
2023/12/04 03:26:47;;;;;;;7.45;2.90;;;;;;;4.78;61.24;100335.06;3163666;28;20441;-61
2023/12/04 03:28:18;;;;;;;6.25;3.00;;;;;;;4.77;60.80;100341.09;3164240;28;20063;-63
2023/12/04 03:29:50;;;;;;;6.63;3.08;;;;;;;4.75;60.82;100349.72;3158181;28;20549;-64
2023/12/04 03:31:22;;;;;;;5.25;3.22;;;;;;;4.75;60.79;100342.84;3163176;28;20048;-64
2023/12/04 03:32:53;;;;;;;5.80;2.75;;;;;;;4.73;60.84;100336.00;3163967;28;20063;-64
2023/12/04 03:34:25;;;;;;;6.60;2.90;;;;;;;4.73;60.81;100344.59;3163325;28;20051;-64
2023/12/04 03:35:56;;;;;;;5.40;2.90;;;;;;;4.74;60.55;100341.16;3163819;28;20048;-64
2023/12/04 03:37:28;;;;;;;7.00;3.05;;;;;;;4.73;60.65;100351.47;3163733;28;20052;-64
2023/12/04 03:38:58;;;;;;;6.68;3.10;;;;;;;4.73;60.42;100351.47;3163508;28;20051;-64
2023/12/04 03:40:32;;;;;;;5.93;3.30;;;;;;;4.71;60.63;100351.50;3167039;28;20119;-64
2023/12/04 03:42:04;;;;;;;5.57;3.17;;;;;;;4.70;60.49;100352.38;3151681;28;20052;-64
2023/12/04 03:43:36;;;;;;;6.90;3.30;;;;;;;4.68;60.50;100341.22;3154494;28;20051;-66
2023/12/04 03:45:07;;;;;;;4.88;2.95;;;;;;;4.70;60.59;100344.66;3163985;28;20059;-63
2023/12/04 03:46:39;;;;;;;5.45;3.25;;;;;;;4.70;60.35;100346.34;3152437;28;20174;-63
2023/12/04 03:48:11;;;;;;;5.32;2.85;;;;;;;4.73;59.97;100352.34;3152830;28;20525;-64
2023/12/04 03:49:42;;;;;;;6.57;2.97;;;;;;;4.68;60.01;100343.81;3163805;28;20055;-64
2023/12/04 03:51:14;;;;;;;5.65;2.67;;;;;;;4.68;59.43;100342.97;3163567;28;20108;-64
2023/12/04 03:52:45;;;;;;;4.47;2.60;;;;;;;4.67;59.31;100351.53;3164201;28;20055;-65
2023/12/04 03:54:16;;;;;;;8.25;3.20;;;;;;;4.65;58.95;100345.56;3166220;28;20051;-65
2023/12/04 03:55:49;;;;;;;6.85;2.90;;;;;;;4.62;58.80;100351.63;3164673;28;20517;-64
2023/12/04 03:57:20;;;;;;;5.20;3.10;;;;;;;4.60;58.42;100355.94;3163938;28;20052;-64
2023/12/04 03:58:52;;;;;;;6.05;2.50;;;;;;;4.59;58.69;100349.06;3165323;28;20492;-64
2023/12/04 04:00:23;;;;;;;5.15;2.92;;;;;;;4.59;58.69;100358.53;3162998;28;20502;-65
2023/12/04 04:01:55;;;;;;;4.32;2.97;;;;;;;4.54;58.81;100348.28;3161895;28;20066;-66
2023/12/04 04:03:25;;;;;;;6.78;2.90;;;;;;;4.57;58.73;100355.97;3159025;28;20052;-64
2023/12/04 04:04:57;;;;;;;5.65;3.17;;;;;;;4.57;58.91;100355.97;3153524;28;20067;-63
2023/12/04 04:06:28;;;;;;;5.00;3.20;;;;;;;4.57;58.46;100348.22;3159338;28;20083;-63
2023/12/04 04:08:00;;;;;;;6.47;3.20;;;;;;;4.57;58.71;100349.06;3166209;28;20051;-63
2023/12/04 04:09:30;;;;;;;6.70;3.38;;;;;;;4.56;58.50;100352.53;3164255;27;20436;-63
2023/12/04 04:11:04;;;;;;;6.03;3.10;;;;;;;4.56;58.60;100347.38;3165502;28;20122;-63
2023/12/04 04:12:35;;;;;;;5.75;3.22;;;;;;;4.56;58.33;100343.94;3165534;28;20083;-63
2023/12/04 04:14:07;;;;;;;6.47;3.15;;;;;;;4.58;58.14;100349.94;3166027;28;20533;-63
2023/12/04 04:15:37;;;;;;;7.50;3.95;;;;;;;4.60;57.93;100355.94;3165802;28;20112;-64
2023/12/04 04:17:09;;;;;;;5.07;2.90;;;;;;;4.55;58.04;100356.00;3165793;28;20592;-63
2023/12/04 04:18:40;;;;;;;6.07;2.97;;;;;;;4.59;57.75;100361.13;3164153;28;20075;-63
2023/12/04 04:20:12;;;;;;;6.53;3.30;;;;;;;4.57;57.81;100366.28;3165860;28;20055;-63
2023/12/04 04:21:43;;;;;;;5.47;3.15;;;;;;;4.55;58.00;100363.75;3165779;28;20168;-63
2023/12/04 04:23:15;;;;;;;6.70;3.78;;;;;;;4.51;58.01;100368.94;3166983;27;20051;-63
2023/12/04 04:24:46;;;;;;;6.07;3.17;;;;;;;4.50;58.17;100375.81;3169591;27;20052;-63
2023/12/04 04:26:19;;;;;;;6.53;3.40;;;;;;;4.52;58.13;100386.13;3164843;28;20055;-66
2023/12/04 04:27:50;;;;;;;6.18;3.17;;;;;;;4.51;57.82;100393.00;3165743;28;20078;-65
2023/12/04 04:29:21;;;;;;;7.40;3.20;;;;;;;4.47;57.77;100387.91;3163703;28;20052;-62
2023/12/04 04:30:52;;;;;;;8.32;3.35;;;;;;;4.41;57.87;100381.09;3165670;28;20051;-64
2023/12/04 04:32:24;;;;;;;6.97;3.60;;;;;;;4.43;57.83;100389.63;3165974;28;20052;-65
2023/12/04 04:33:55;;;;;;;7.15;3.80;;;;;;;4.44;57.70;100387.94;3165684;28;20051;-64
2023/12/04 04:35:27;;;;;;;9.80;4.57;;;;;;;4.41;57.99;100385.38;3165855;28;20567;-66
2023/12/04 04:36:59;;;;;;;6.70;3.58;;;;;;;4.43;57.51;100384.47;3165258;28;20055;-65
2023/12/04 04:38:30;;;;;;;10.20;3.95;;;;;;;4.42;57.33;100381.94;3165591;28;20051;-64
2023/12/04 04:40:01;;;;;;;6.40;3.28;;;;;;;4.38;57.32;100398.28;3169895;27;20056;-64
2023/12/04 04:41:35;;;;;;;8.07;4.07;;;;;;;4.35;57.33;100386.31;3165249;28;20059;-64
2023/12/04 04:43:06;;;;;;;6.50;3.25;;;;;;;4.32;57.32;100399.25;3165750;28;20553;-64
2023/12/04 04:44:37;;;;;;;7.40;3.60;;;;;;;4.33;57.01;100404.38;3165466;28;20055;-63
2023/12/04 04:46:09;;;;;;;6.78;3.90;;;;;;;4.24;57.02;100389.00;3165797;28;20626;-62
2023/12/04 04:47:41;;;;;;;7.43;3.72;;;;;;;4.29;57.21;100402.69;3165379;28;20050;-62
2023/12/04 04:49:11;;;;;;;7.88;3.78;;;;;;;4.28;57.15;100398.38;3165338;28;20059;-63
2023/12/04 04:50:43;;;;;;;9.23;3.83;;;;;;;4.15;57.15;100381.34;3165489;28;20051;-62
2023/12/04 04:52:14;;;;;;;7.35;4.00;;;;;;;4.23;57.00;100400.19;3165642;28;20142;-64
2023/12/04 04:53:54;;;;;;;8.50;3.97;;;;;;;4.25;57.05;100410.47;3170696;27;20047;-64
2023/12/04 04:55:25;;;;;;;7.15;3.67;;;;;;;4.25;56.98;100406.16;3169715;28;20544;-64
2023/12/04 04:56:58;;;;;;;9.68;4.30;;;;;;;4.22;56.82;100410.50;3170360;28;20062;-64
2023/12/04 04:58:28;;;;;;;7.43;4.25;;;;;;;4.21;57.10;100419.94;3170234;28;20090;-63
2023/12/04 05:00:00;;;;;;;6.13;3.40;;;;;;;4.21;56.75;100413.94;3165790;28;20048;-64
2023/12/04 05:01:31;;;;;;;9.77;4.43;;;;;;;4.19;56.74;100419.09;3167537;28;20052;-65
2023/12/04 05:03:03;;;;;;;9.52;4.22;;;;;;;4.17;56.39;100420.88;3170608;28;20135;-63
2023/12/04 05:04:35;;;;;;;6.65;3.63;;;;;;;3.98;56.74;100396.09;3170578;28;20047;-63
2023/12/04 05:06:07;;;;;;;7.97;4.28;;;;;;;4.06;56.95;100399.47;3170425;28;20131;-64
2023/12/04 05:07:38;;;;;;;8.50;4.20;;;;;;;4.16;56.72;100426.88;3170628;28;20047;-65
2023/12/04 05:09:09;;;;;;;8.00;4.00;;;;;;;4.10;56.40;100425.19;3173122;27;20052;-68
2023/12/04 05:10:40;;;;;;;6.78;3.90;;;;;;;4.13;56.44;100426.91;3173260;27;20050;-68
2023/12/04 05:12:13;;;;;;;11.30;4.40;;;;;;;4.13;56.48;100431.19;3171496;27;20051;-68
2023/12/04 05:13:45;;;;;;;8.85;4.45;;;;;;;4.09;56.69;100451.84;3170168;28;20082;-69
2023/12/04 05:15:16;;;;;;;8.15;4.05;;;;;;;4.07;56.55;100437.25;3169815;27;20051;-68
2023/12/04 05:16:47;;;;;;;7.88;4.00;;;;;;;4.08;56.90;100446.69;3170343;28;20055;-69
2023/12/04 05:18:19;;;;;;;7.32;4.05;;;;;;;4.14;56.25;100448.38;3167601;27;20142;-67
2023/12/04 05:19:49;;;;;;;8.98;4.40;;;;;;;4.09;56.29;100454.44;3163058;28;20043;-66
2023/12/04 05:21:21;;;;;;;9.82;4.53;;;;;;;4.09;56.47;100462.16;3170046;28;20062;-69
2023/12/04 05:22:52;;;;;;;9.77;4.70;;;;;;;4.04;56.62;100458.75;3171822;27;20414;-72
2023/12/04 05:24:24;;;;;;;8.55;4.35;;;;;;;4.09;56.38;100466.47;3170510;28;20054;-63
2023/12/04 05:25:54;;;;;;;7.95;3.83;;;;;;;3.99;56.35;100457.94;3169776;28;20040;-64
2023/12/04 05:27:28;;;;;;;9.45;4.75;;;;;;;4.07;56.43;100463.03;3170224;28;20047;-66
2023/12/04 05:28:58;;;;;;;26.75;12.75;;;;;;;4.06;56.48;100472.50;3170020;28;20481;-67
2023/12/04 05:30:30;;;;;;;11.43;4.97;;;;;;;4.08;56.36;100472.47;3166750;28;20079;-64
2023/12/04 05:32:01;;;;;;;15.75;6.20;;;;;;;4.13;56.51;100475.88;3170427;28;20051;-68
2023/12/04 05:33:33;;;;;;;8.25;4.57;;;;;;;4.15;56.20;100473.28;3169886;28;20054;-70
2023/12/04 05:35:04;;;;;;;9.27;4.55;;;;;;;4.14;56.47;100469.88;3170136;28;20047;-62
2023/12/04 05:36:36;;;;;;;9.27;4.38;;;;;;;4.14;56.07;100476.72;3169962;28;20475;-66
2023/12/04 05:38:07;;;;;;;7.57;4.03;;;;;;;3.64;56.42;100404.97;3170165;28;20078;-66
2023/12/04 05:39:39;;;;;;;9.52;4.70;;;;;;;4.13;56.35;100473.28;3169863;28;20523;-67
2023/12/04 05:41:10;;;;;;;8.95;4.65;;;;;;;4.15;56.38;100481.03;3169954;28;20120;-66
2023/12/04 05:42:43;;;;;;;8.45;4.43;;;;;;;4.01;56.25;100463.94;3169707;28;20085;-66
2023/12/04 05:44:14;;;;;;;10.75;4.80;;;;;;;4.14;56.23;100480.19;3169740;28;20050;-64
2023/12/04 05:45:45;;;;;;;11.27;5.40;;;;;;;4.13;55.91;100486.19;3169941;28;20899;-64
2023/12/04 05:47:17;;;;;;;13.00;5.68;;;;;;;4.12;56.04;100487.06;3169420;28;20508;-65
2023/12/04 05:48:48;;;;;;;12.55;5.63;;;;;;;3.53;55.85;100393.03;3169755;28;20389;-65
2023/12/04 05:50:20;;;;;;;16.35;5.72;;;;;;;4.11;55.74;100490.47;3170125;28;20059;-65
2023/12/04 05:51:52;;;;;;;11.65;5.43;;;;;;;4.06;56.05;100485.38;3163811;28;20508;-65
2023/12/04 05:53:22;;;;;;;10.38;5.30;;;;;;;4.10;56.06;100497.38;3169491;28;20063;-64
2023/12/04 05:54:54;;;;;;;9.20;4.80;;;;;;;4.12;55.96;100504.25;3169849;28;20051;-63
2023/12/04 05:56:25;;;;;;;8.70;4.50;;;;;;;4.12;55.98;100515.41;3169434;28;20051;-62
2023/12/04 05:57:59;;;;;;;9.30;4.57;;;;;;;3.96;55.77;100488.88;3169009;28;20070;-64
2023/12/04 05:59:30;;;;;;;8.27;4.57;;;;;;;4.09;55.72;100516.28;3161756;28;20130;-65
2023/12/04 06:01:03;;;;;;;10.93;4.07;;;;;;;4.09;55.27;100515.44;3166151;28;20138;-64
2023/12/04 06:02:49;;;;;;;8.67;4.37;;;;;;;3.55;55.20;100438.50;3162895;28;20165;-69
2023/12/04 06:04:20;;;;;;;8.43;4.63;;;;;;;4.03;55.06;100525.78;3169995;28;20298;-70
2023/12/04 06:05:51;;;;;;;7.63;3.90;;;;;;;4.04;54.86;100525.75;3172118;27;20054;-71
2023/12/04 06:07:22;;;;;;;10.00;4.03;;;;;;;4.02;54.81;100524.94;3169286;28;20050;-70
2023/12/04 06:08:55;;;;;;;9.88;4.63;;;;;;;3.94;54.95;100505.25;3169647;28;20051;-67
2023/12/04 06:10:26;;;;;;;9.13;4.35;;;;;;;4.01;55.06;100522.34;3169707;28;20040;-67
2023/12/04 06:11:57;;;;;;;7.47;4.35;;;;;;;4.04;54.96;100524.91;3167515;28;20134;-68
2023/12/04 06:13:30;;;;;;;8.95;4.25;;;;;;;4.04;54.85;100515.47;3169100;28;20067;-72
2023/12/04 06:15:02;;;;;;;9.23;4.60;;;;;;;3.26;54.95;100392.34;3173310;27;20043;-71
2023/12/04 06:16:34;;;;;;;9.55;4.55;;;;;;;3.90;54.98;100499.22;3168851;28;20043;-68
2023/12/04 06:18:05;;;;;;;9.15;4.88;;;;;;;3.93;55.14;100506.94;3169051;28;20066;-68
2023/12/04 06:19:37;;;;;;;8.27;4.07;;;;;;;4.05;55.16;100522.34;3169084;28;20455;-67
2023/12/04 06:21:08;;;;;;;8.48;4.50;;;;;;;4.02;54.99;100517.22;3170387;27;20436;-69
2023/12/04 06:22:40;;;;;;;13.75;4.85;;;;;;;4.05;55.15;100522.34;3176851;27;20136;-69
2023/12/04 06:24:12;;;;;;;8.03;4.43;;;;;;;4.06;55.28;100530.94;3168472;28;20053;-70
2023/12/04 06:25:44;;;;;;;8.85;4.68;;;;;;;4.08;55.48;100537.78;3169112;28;20336;-71
2023/12/04 06:27:17;;;;;;;11.43;4.35;;;;;;;4.09;55.23;100536.06;3168918;28;20452;-69
2023/12/04 06:28:51;;;;;;;9.40;4.18;;;;;;;3.99;55.56;100524.09;3169176;28;20543;-69
2023/12/04 06:30:22;;;;;;;8.32;3.60;;;;;;;4.15;54.82;100548.91;3166994;28;20047;-72
2023/12/04 06:31:58;;;;;;;10.40;3.75;;;;;;;4.16;54.31;100548.03;3169452;28;20054;-72
2023/12/04 06:33:29;;;;;;;7.82;3.72;;;;;;;4.11;54.27;100544.63;3168545;28;20043;-71
2023/12/04 06:35:03;;;;;;;9.00;3.83;;;;;;;4.13;53.95;100560.09;3169402;28;20051;-72
2023/12/04 06:36:38;;;;;;;6.57;3.50;;;;;;;4.08;54.12;100549.78;3172334;27;20043;-70
2023/12/04 06:38:15;;;;;;;9.00;3.85;;;;;;;4.10;54.53;100556.66;3164373;28;20198;-70
2023/12/04 06:39:48;;;;;;;9.40;4.32;;;;;;;4.10;54.49;100556.66;3169305;28;20055;-70
2023/12/04 06:41:21;;;;;;;;;;;;;;;3.99;54.54;100550.69;3168727;28;20048;-69
2023/12/04 06:42:52;;;;;;;9.27;3.95;;;;;;;4.01;54.77;100555.88;3168662;28;19931;-70
2023/12/04 06:44:26;;;;;;;8.15;3.88;;;;;;;4.02;54.41;100545.56;3168590;28;20039;-70
2023/12/04 06:45:58;;;;;;;10.75;4.22;;;;;;;4.08;54.12;100560.09;3169365;28;20048;-70
2023/12/04 06:47:32;;;;;;;7.68;3.65;;;;;;;4.07;54.02;100561.81;3168816;28;20051;-70
2023/12/04 06:49:06;;;;;;;7.78;3.47;;;;;;;4.09;54.12;100557.53;3157807;28;20458;-71
2023/12/04 06:50:37;;;;;;;;;;;;;;;4.00;53.93;100557.59;3169583;28;20448;-70
2023/12/04 06:52:09;;;;;;;8.55;4.00;;;;;;;4.03;54.06;100556.72;3175961;28;19924;-71
2023/12/04 06:53:40;;;;;;;6.90;3.55;;;;;;;4.01;54.24;100550.72;3169321;28;20063;-70
2023/12/04 06:55:18;;;;;;;8.52;3.95;;;;;;;4.04;53.73;100561.84;3168130;28;20116;-69
2023/12/04 06:56:56;;;;;;;8.40;3.92;;;;;;;4.10;53.93;100568.69;3168154;28;20845;-71
2023/12/04 06:58:48;;;;;;;9.73;3.97;;;;;;;4.13;53.61;100570.41;3169265;28;20047;-68
2023/12/04 07:00:21;;;;;;;9.10;3.60;;;;;;;4.11;53.81;100572.97;3164161;28;20534;-69
2023/12/04 07:02:11;;;;;;;;;;;;;;;;;;;;;
2023/12/04 07:03:54;;;;;;;8.50;4.00;;;;;;;4.10;54.01;100568.69;3147773;28;20238;-69
2023/12/04 07:05:25;;;;;;;11.63;3.97;;;;;;;4.12;54.23;100577.28;3164305;28;20504;-71
2023/12/04 07:07:04;;;;;;;7.47;3.97;;;;;;;4.21;53.67;100574.63;3166512;28;20741;-69
2023/12/04 07:08:38;;;;;;;11.73;4.20;;;;;;;4.18;53.90;100577.22;3158021;28;20645;-67
2023/12/04 07:10:14;;;;;;;;;;;;;;;4.09;53.90;100579.88;3164272;28;20055;-68
2023/12/04 07:11:50;;;;;;;8.43;3.53;;;;;;;4.13;53.95;100575.56;3154092;28;20443;-69
2023/12/04 07:13:25;;;;;;;9.65;4.38;;;;;;;4.17;54.09;100580.69;3157854;28;20108;-69